Time;durP1;ratioP1;P1;durP2;ratioP2;P2;SDS_P1;SDS_P2;PMS_P1;PMS_P2;Temp;Humidity;BMP_temperature;BMP_pressure;BME280_temperature;BME280_humidity;BME280_pressure;Samples;Min_cycle;Max_cycle;Signal;HPM_P1;HPM_P2
2021/03/18 00:01:50;;;;;;;1.20;1.10;;;;;;;-0.25;71.80;101882.66;5065405;28;20202;-68
2021/03/18 00:04:19;;;;;;;2.73;0.87;;;;;;;-0.21;71.83;101882.63;5066188;28;20201;-68
2021/03/18 00:06:48;;;;;;;3.90;1.57;;;;;;;-0.30;71.67;101885.34;5066646;28;20305;-68
2021/03/18 00:09:18;;;;;;;2.43;1.20;;;;;;;-0.49;71.75;101878.38;5066315;28;20198;-68
2021/03/18 00:11:48;;;;;;;1.90;1.27;;;;;;;-0.50;72.01;101874.84;5065476;28;20249;-68
2021/03/18 00:14:18;;;;;;;4.40;0.60;;;;;;;-0.73;72.50;101872.28;5068095;28;20603;-68
2021/03/18 00:16:45;;;;;;;0.83;0.83;;;;;;;-0.85;71.81;101845.09;5064176;28;20197;-68
2021/03/18 00:19:13;;;;;;;2.83;1.63;;;;;;;-0.46;72.20;101878.34;5068604;28;20510;-68
2021/03/18 00:21:42;;;;;;;4.53;1.33;;;;;;;-0.51;72.62;101845.84;5069097;28;20195;-68
2021/03/18 00:24:10;;;;;;;1.17;1.10;;;;;;;-0.20;72.84;101872.97;5050486;28;20205;-69
2021/03/18 00:26:37;;;;;;;1.00;0.90;;;;;;;-0.14;72.42;101875.56;5065419;28;20202;-68
2021/03/18 00:29:06;;;;;;;1.13;0.80;;;;;;;-0.12;72.38;101884.34;5062472;28;20257;-69
2021/03/18 00:31:45;;;;;;;3.43;1.20;;;;;;;-0.17;72.27;101878.22;5047942;28;20225;-68
2021/03/18 00:34:12;;;;;;;1.37;0.97;;;;;;;-0.16;71.87;101879.97;5063481;28;20196;-68
2021/03/18 00:36:39;;;;;;;2.30;1.43;;;;;;;-0.13;71.70;101875.53;5038046;28;20307;-69
2021/03/18 00:39:08;;;;;;;1.07;0.93;;;;;;;-0.17;71.82;101868.53;5069303;28;20210;-69
2021/03/18 00:41:36;;;;;;;0.60;0.60;;;;;;;-0.14;71.25;101878.19;5068463;28;20306;-69
2021/03/18 00:44:04;;;;;;;3.53;1.20;;;;;;;-0.11;71.76;101867.63;5050280;28;20205;-69
2021/03/18 00:46:32;;;;;;;3.80;1.00;;;;;;;-0.16;71.79;101870.28;5054931;28;20202;-69
2021/03/18 00:48:59;;;;;;;1.10;1.00;;;;;;;-0.12;71.67;101865.88;5070070;28;20206;-69
2021/03/18 00:51:27;;;;;;;1.13;0.90;;;;;;;-0.07;71.23;101866.72;5042565;28;20271;-69
2021/03/18 00:53:54;;;;;;;1.27;0.90;;;;;;;-0.15;71.35;101845.66;5049776;28;20303;-69
2021/03/18 00:56:23;;;;;;;1.50;1.13;;;;;;;0.01;71.58;101845.56;5051948;28;20547;-69
2021/03/18 00:58:58;;;;;;;2.43;1.03;;;;;;;-0.02;71.73;101831.47;5051002;28;20277;-69
2021/03/18 01:01:27;;;;;;;1.90;1.10;;;;;;;-0.19;71.56;101795.53;5050283;28;20199;-69
2021/03/18 01:03:57;;;;;;;1.90;1.03;;;;;;;-0.12;71.89;101834.19;5070279;28;20195;-68
2021/03/18 01:06:26;;;;;;;2.83;1.37;;;;;;;-0.08;71.97;101830.63;5052304;28;20208;-68
2021/03/18 01:08:57;;;;;;;2.40;1.00;;;;;;;-0.11;71.81;101815.69;5069990;28;20212;-68
2021/03/18 01:11:29;;;;;;;2.43;1.10;;;;;;;-0.17;71.58;101825.44;5067841;28;20301;-66
2021/03/18 01:14:00;;;;;;;5.67;1.17;;;;;;;-0.15;71.42;101813.97;5056929;28;20669;-68
2021/03/18 01:16:32;;;;;;;4.30;1.20;;;;;;;-0.14;71.82;101820.13;5051825;28;20303;-68
2021/03/18 01:19:02;;;;;;;2.40;0.83;;;;;;;-0.22;72.12;101817.53;5067680;28;20194;-68
2021/03/18 01:21:33;;;;;;;3.13;1.10;;;;;;;-0.20;72.51;101806.97;5055726;28;20216;-68
2021/03/18 01:24:01;;;;;;;3.03;1.30;;;;;;;-0.45;72.53;101767.53;5068587;28;20206;-69
2021/03/18 01:26:30;;;;;;;1.50;1.17;;;;;;;-0.21;72.87;101792.03;5067839;28;20202;-68
2021/03/18 01:28:57;;;;;;;1.00;0.90;;;;;;;-0.24;73.04;101798.22;5063605;28;20225;-69
2021/03/18 01:31:24;;;;;;;1999.90;832.13;;;;;;;-0.28;72.50;101801.75;5069734;28;20223;-69
2021/03/18 01:33:51;;;;;;;894.73;232.57;;;;;;;-0.36;72.42;101785.94;5068859;28;20666;-69
2021/03/18 01:36:19;;;;;;;54.63;18.27;;;;;;;-0.39;72.70;101783.31;5069302;28;20197;-69
2021/03/18 01:38:47;;;;;;;9.40;3.47;;;;;;;-0.43;72.89;101786.88;5066172;28;20205;-69
2021/03/18 01:41:15;;;;;;;9.40;3.73;;;;;;;-0.41;73.12;101789.50;5049804;28;20198;-68
2021/03/18 01:43:44;;;;;;;9.53;4.20;;;;;;;-0.41;73.04;101778.94;5064939;28;20569;-68
2021/03/18 01:46:12;;;;;;;2.57;1.50;;;;;;;-0.45;73.09;101779.84;5061096;28;20230;-69
2021/03/18 01:48:40;;;;;;;5.50;2.33;;;;;;;-0.49;72.66;101783.41;5063710;28;20216;-69
2021/03/18 01:51:07;;;;;;;23.57;16.17;;;;;;;-0.52;72.53;101779.03;5064374;28;20265;-68
2021/03/18 01:53:35;;;;;;;4.57;2.33;;;;;;;-0.67;73.09;101745.69;5066876;28;20653;-68
2021/03/18 01:56:04;;;;;;;4.87;3.60;;;;;;;-0.63;73.58;101746.53;5067225;28;20240;-68
2021/03/18 01:58:32;;;;;;;3.00;2.30;;;;;;;-0.44;73.49;101773.69;5053825;28;20273;-69
2021/03/18 02:01:03;;;;;;;2.00;1.30;;;;;;;-0.45;73.03;101767.53;5069475;28;20210;-69
2021/03/18 02:03:31;;;;;;;2.17;1.07;;;;;;;-0.50;72.79;101774.63;5048310;28;20209;-68
2021/03/18 02:05:58;;;;;;;2.10;1.10;;;;;;;-0.62;73.09;101779.94;5060894;28;20207;-70
2021/03/18 02:08:26;;;;;;;1.13;0.90;;;;;;;-0.70;73.09;101771.19;5068653;28;20239;-70
2021/03/18 02:10:53;;;;;;;1.83;0.93;;;;;;;-0.77;73.10;101783.53;5068248;28;20222;-69
2021/03/18 02:13:21;;;;;;;0.87;0.77;;;;;;;-0.83;73.24;101774.78;5067564;28;20198;-69
2021/03/18 02:15:52;;;;;;;4.87;3.13;;;;;;;-0.84;73.90;101771.28;5063496;28;20212;-68
2021/03/18 02:18:27;;;;;;;13.63;5.20;;;;;;;-0.79;74.20;101776.53;5053683;28;20210;-69
2021/03/18 02:21:42;;;;;;;2.67;2.43;;;;;;;-0.74;74.29;101780.00;5061362;28;20202;-69
2021/03/18 02:24:21;;;;;;;1.30;1.20;;;;;;;-0.78;74.37;101768.59;5053970;28;20647;-70
2021/03/18 02:27:27;;;;;;;0.70;0.70;;;;;;;-0.80;73.67;101782.69;5070420;28;20598;-69
2021/03/18 02:30:30;;;;;;;0.87;0.87;;;;;;;-0.86;74.26;101780.06;5071348;28;20721;-69
2021/03/18 02:33:38;;;;;;;2.63;0.70;;;;;;;-0.94;73.97;101794.13;5057939;28;20687;-70
2021/03/18 02:36:09;;;;;;;0.40;0.40;;;;;;;-1.14;73.91;101768.75;5072291;28;20202;-69
2021/03/18 02:38:40;;;;;;;3.50;0.47;;;;;;;-1.02;74.12;101769.56;5072732;28;20675;-69
2021/03/18 02:41:10;;;;;;;0.33;0.33;;;;;;;-1.00;74.30;101783.63;5072553;28;20747;-69
2021/03/18 02:43:42;;;;;;;0.97;0.70;;;;;;;-0.99;73.84;101773.94;5059317;28;20208;-69
2021/03/18 02:46:10;;;;;;;0.57;0.57;;;;;;;-1.01;74.19;101767.81;5063906;28;20204;-69
2021/03/18 02:48:39;;;;;;;0.60;0.50;;;;;;;-1.04;73.99;101762.56;5070016;28;20284;-69
2021/03/18 02:51:14;;;;;;;0.60;0.60;;;;;;;-1.28;73.59;101716.09;5059739;28;20237;-69
2021/03/18 02:53:43;;;;;;;1.77;0.70;;;;;;;-1.05;73.79;101756.41;5072763;28;20207;-69
2021/03/18 02:56:13;;;;;;;1.33;0.80;;;;;;;-1.01;73.66;101763.41;5072323;28;20197;-69
2021/03/18 02:58:42;;;;;;;1.00;0.90;;;;;;;-1.02;73.75;101760.78;5050933;28;20207;-69
2021/03/18 03:01:09;;;;;;;2.13;0.80;;;;;;;-1.00;73.76;101782.75;5070559;28;20269;-69
2021/03/18 03:03:43;;;;;;;0.27;0.27;;;;;;;-0.95;74.15;101768.66;5072464;28;20202;-69
2021/03/18 03:06:12;;;;;;;0.50;0.50;;;;;;;-0.94;74.60;101751.97;5052182;28;20195;-68
2021/03/18 03:08:40;;;;;;;0.40;0.40;;;;;;;-0.82;75.03;101763.34;5054927;28;20683;-68
2021/03/18 03:11:08;;;;;;;1.60;0.77;;;;;;;-0.76;74.39;101761.56;5065633;28;20207;-68
2021/03/18 03:13:40;;;;;;;720.47;394.60;;;;;;;-0.64;74.59;101757.97;5052405;28;20573;-69
2021/03/18 03:16:12;;;;;;;12.03;6.97;;;;;;;-0.60;74.34;101746.56;5064817;28;20289;-69
2021/03/18 03:18:40;;;;;;;5.73;2.27;;;;;;;-0.49;74.37;101749.09;5071653;28;20202;-69
2021/03/18 03:21:08;;;;;;;4.47;1.83;;;;;;;-0.35;74.32;101750.75;5050612;28;20700;-69
2021/03/18 03:23:38;;;;;;;1.27;1.17;;;;;;;-0.20;74.08;101751.56;5066569;28;20194;-69
2021/03/18 03:26:06;;;;;;;0.80;0.80;;;;;;;-0.08;73.90;101739.13;5054236;28;20226;-68
2021/03/18 03:28:35;;;;;;;0.37;0.37;;;;;;;-0.04;73.18;101732.06;5071807;28;20233;-69
2021/03/18 03:31:03;;;;;;;1.03;0.77;;;;;;;0.11;73.27;101729.31;5055936;28;20597;-68
2021/03/18 03:33:30;;;;;;;0.70;0.70;;;;;;;0.20;72.76;101730.97;5044415;28;20206;-69
2021/03/18 03:35:59;;;;;;;2.50;1.53;;;;;;;0.30;73.23;101733.50;5070911;28;20629;-68
2021/03/18 03:38:26;;;;;;;3.67;3.20;;;;;;;0.33;72.80;101721.19;5071151;28;20217;-68
2021/03/18 03:40:55;;;;;;;0.60;0.60;;;;;;;0.46;72.55;101717.50;5056833;28;20618;-68
2021/03/18 03:43:23;;;;;;;1.93;1.70;;;;;;;0.49;72.60;101696.34;5059514;28;20277;-69
2021/03/18 03:45:52;;;;;;;2.13;1.80;;;;;;;0.39;72.30;101685.00;5068476;28;20202;-69
2021/03/18 03:48:19;;;;;;;4.07;2.87;;;;;;;0.47;72.21;101692.84;5071531;28;20268;-69
2021/03/18 03:50:46;;;;;;;2.53;0.50;;;;;;;0.54;71.93;101705.09;5068820;28;20294;-68
2021/03/18 03:53:21;;;;;;;1.37;1.27;;;;;;;0.52;71.72;101701.59;5066577;28;20194;-69
2021/03/18 03:55:56;;;;;;;7.47;3.63;;;;;;;0.53;71.64;101704.22;5050233;28;20681;-68
2021/03/18 03:58:34;;;;;;;2.93;2.37;;;;;;;0.54;71.47;101694.53;5066522;28;20598;-68
2021/03/18 04:01:06;;;;;;;2.20;1.33;;;;;;;0.53;71.21;101693.66;5064202;28;20235;-68
2021/03/18 04:03:35;;;;;;;0.63;0.57;;;;;;;0.50;70.71;101687.53;5070382;28;20193;-68
2021/03/18 04:06:05;;;;;;;2.53;0.50;;;;;;;0.50;71.07;101692.81;5069367;28;20202;-68
2021/03/18 04:08:36;;;;;;;0.97;0.60;;;;;;;0.30;70.65;101667.47;5069373;28;20569;-67
2021/03/18 04:11:05;;;;;;;0.50;0.50;;;;;;;0.36;70.82;101684.16;5053922;28;20229;-68
2021/03/18 04:13:33;;;;;;;0.77;0.67;;;;;;;0.33;71.20;101692.13;5053528;28;20201;-68
2021/03/18 04:16:03;;;;;;;0.70;0.60;;;;;;;0.26;71.38;101694.81;5056856;28;20251;-68
2021/03/18 04:18:35;;;;;;;0.33;0.33;;;;;;;0.22;71.45;101695.72;5066967;28;20200;-68
2021/03/18 04:21:05;;;;;;;0.50;0.50;;;;;;;0.20;72.02;101696.66;5070327;28;20665;-68
2021/03/18 04:23:33;;;;;;;0.60;0.60;;;;;;;0.04;72.33;101672.16;5063356;28;20565;-68
2021/03/18 04:26:01;;;;;;;0.53;0.53;;;;;;;0.12;72.59;101686.16;5068729;28;20612;-68
2021/03/18 04:28:31;;;;;;;0.90;0.63;;;;;;;0.13;72.59;101687.91;5068177;28;20317;-68
2021/03/18 04:30:59;;;;;;;0.57;0.50;;;;;;;0.11;72.59;101692.34;5067551;28;20214;-68
2021/03/18 04:33:29;;;;;;;0.40;0.40;;;;;;;0.02;72.61;101673.94;5069369;28;20204;-68
2021/03/18 04:35:58;;;;;;;0.50;0.50;;;;;;;0.09;72.43;101685.31;5069669;28;20189;-68
2021/03/18 04:38:28;;;;;;;0.50;0.50;;;;;;;0.07;72.81;101681.81;5070309;28;20276;-68
2021/03/18 04:40:56;;;;;;;0.57;0.57;;;;;;;0.05;72.80;101684.47;5061962;28;20218;-68
2021/03/18 04:43:24;;;;;;;0.60;0.60;;;;;;;-0.01;73.48;101666.03;5062004;28;20564;-68
2021/03/18 04:45:55;;;;;;;0.60;0.60;;;;;;;0.01;73.71;101671.31;5053934;28;20189;-67
2021/03/18 04:48:23;;;;;;;1.13;0.53;;;;;;;-0.01;73.30;101668.66;5062028;28;20205;-68
2021/03/18 04:50:50;;;;;;;6.70;3.10;;;;;;;-0.13;73.20;101653.84;5064452;28;20619;-68
2021/03/18 04:53:19;;;;;;;1.67;1.50;;;;;;;-0.09;73.24;101670.50;5053303;28;20202;-68
2021/03/18 04:55:47;;;;;;;1.17;1.10;;;;;;;-0.30;73.61;101620.59;5053524;28;20706;-67
2021/03/18 04:58:15;;;;;;;1.10;1.00;;;;;;;-0.06;73.34;101655.53;5068461;28;20257;-68
2021/03/18 05:00:45;;;;;;;0.50;0.50;;;;;;;-0.11;72.55;101656.47;5068680;28;21516;-67
2021/03/18 05:03:14;;;;;;;0.60;0.60;;;;;;;-0.15;73.06;101655.63;5060684;28;20229;-68
2021/03/18 05:05:42;;;;;;;2.43;2.23;;;;;;;-0.14;72.64;101661.75;5064392;28;20216;-68
2021/03/18 05:08:11;;;;;;;0.83;0.70;;;;;;;-0.14;73.04;101651.22;5066650;28;20206;-67
2021/03/18 05:10:41;;;;;;;0.97;0.97;;;;;;;-0.09;73.02;101649.41;5066628;28;20629;-67
2021/03/18 05:13:10;;;;;;;1.93;1.83;;;;;;;-0.06;73.06;101646.72;5050843;28;20290;-68
2021/03/18 05:15:40;;;;;;;3.97;1.33;;;;;;;-0.05;73.34;101653.75;5059322;28;20195;-68
2021/03/18 05:18:10;;;;;;;1.53;1.20;;;;;;;-0.03;73.19;101649.34;5064984;28;20193;-67
2021/03/18 05:20:39;;;;;;;1.97;0.90;;;;;;;-0.04;72.89;101643.19;5067340;28;20208;-67
2021/03/18 05:23:07;;;;;;;1.37;1.00;;;;;;;-0.05;73.16;101651.09;5062561;28;20190;-67
2021/03/18 05:25:37;;;;;;;1.23;1.10;;;;;;;-0.36;72.87;101603.03;5065479;28;20198;-68
2021/03/18 05:28:05;;;;;;;1.40;0.70;;;;;;;-0.20;72.41;101646.00;5057157;28;20225;-67
2021/03/18 05:30:33;;;;;;;0.50;0.50;;;;;;;-0.24;72.84;101642.50;5060261;28;20201;-72
2021/03/18 05:33:02;;;;;;;1.50;1.30;;;;;;;-0.07;73.59;101651.13;5061822;28;20221;-67
2021/03/18 05:35:37;;;;;;;2.63;2.43;;;;;;;0.10;74.23;101637.78;5057528;28;20223;-68
2021/03/18 05:38:06;;;;;;;2.27;0.70;;;;;;;0.00;74.36;101607.09;5062000;28;20592;-68
2021/03/18 05:40:34;;;;;;;7.53;0.63;;;;;;;0.40;74.24;101646.25;5053740;28;20199;-68
2021/03/18 05:43:02;;;;;;;1.90;1.13;;;;;;;0.30;72.39;101627.84;5052710;28;20204;-68
2021/03/18 05:45:29;;;;;;;0.63;0.53;;;;;;;0.45;72.80;101640.03;5052891;28;20193;-67
2021/03/18 05:47:58;;;;;;;1.33;0.83;;;;;;;0.25;72.02;101619.09;5053088;28;20203;-67
2021/03/18 05:50:30;;;;;;;2.20;0.80;;;;;;;0.56;72.44;101647.81;5055515;28;20206;-67
2021/03/18 05:53:00;;;;;;;0.83;0.73;;;;;;;0.56;71.41;101643.41;5061263;28;20210;-68
2021/03/18 05:55:29;;;;;;;3.40;0.87;;;;;;;0.68;71.84;101660.91;5060592;28;20200;-67
2021/03/18 05:57:57;;;;;;;0.40;0.40;;;;;;;0.81;71.06;101659.84;5062038;28;20290;-67
2021/03/18 06:00:25;;;;;;;3.63;0.60;;;;;;;0.96;71.75;101658.78;5062824;28;20214;-72
2021/03/18 06:02:53;;;;;;;0.50;0.50;;;;;;;1.01;71.49;101637.56;5058578;28;20192;-67
2021/03/18 06:05:20;;;;;;;2.00;0.23;;;;;;;1.38;69.56;101659.91;5060007;28;20203;-67
2021/03/18 06:07:49;;;;;;;0.40;0.40;;;;;;;1.48;69.17;101643.00;5061536;28;20291;-67
2021/03/18 06:10:18;;;;;;;0.63;0.40;;;;;;;1.82;68.79;101668.91;5058443;28;20210;-67
2021/03/18 06:12:48;;;;;;;0.20;0.20;;;;;;;1.92;68.99;101667.88;5063619;28;20223;-67
2021/03/18 06:15:18;;;;;;;0.40;0.40;;;;;;;1.99;66.93;101669.50;5066430;28;20291;-67
2021/03/18 06:17:45;;;;;;;1.30;0.50;;;;;;;2.00;67.97;101663.31;5062416;28;20282;-67
2021/03/18 06:20:15;;;;;;;0.50;0.50;;;;;;;2.00;67.12;101668.59;5062862;28;20204;-66
2021/03/18 06:22:45;;;;;;;0.60;0.50;;;;;;;2.09;67.67;101673.72;5063291;28;20603;-67
2021/03/18 06:25:22;;;;;;;0.30;0.30;;;;;;;2.11;66.74;101673.69;5057093;28;20208;-67
2021/03/18 06:27:50;;;;;;;0.60;0.60;;;;;;;2.12;66.69;101664.84;5066416;28;20226;-67
2021/03/18 06:30:19;;;;;;;0.67;0.43;;;;;;;1.97;65.58;101652.78;5065408;28;20202;-67
2021/03/18 06:32:47;;;;;;;0.50;0.50;;;;;;;1.98;65.42;101657.16;5065745;28;20249;-67
2021/03/18 06:35:29;;;;;;;0.57;0.40;;;;;;;2.05;66.74;101669.38;5064793;28;20211;-67
2021/03/18 06:37:57;;;;;;;0.20;0.20;;;;;;;2.08;66.81;101669.34;5067216;28;20216;-67
2021/03/18 06:40:26;;;;;;;1.23;0.60;;;;;;;2.05;67.14;101669.38;5068935;28;20739;-67
2021/03/18 06:42:57;;;;;;;0.40;0.40;;;;;;;2.07;66.45;101657.00;5065852;28;20283;-67
2021/03/18 06:45:29;;;;;;;0.70;0.60;;;;;;;2.01;66.40;101659.75;5066695;28;20686;-67
2021/03/18 06:48:01;;;;;;;0.63;0.43;;;;;;;2.04;66.01;101656.19;5067769;28;20548;-69
2021/03/18 06:50:32;;;;;;;0.67;0.50;;;;;;;1.98;65.93;101654.50;5060906;28;20348;-68
2021/03/18 06:53:00;;;;;;;0.57;0.57;;;;;;;2.03;65.07;101657.06;5070358;28;20648;-67
2021/03/18 06:55:30;;;;;;;0.37;0.37;;;;;;;2.05;65.65;101647.31;5062924;28;20201;-67
2021/03/18 06:58:18;;;;;;;0.57;0.57;;;;;;;2.07;65.13;101641.09;5059436;28;20724;-67
2021/03/18 07:00:48;;;;;;;0.50;0.50;;;;;;;2.03;63.84;101644.72;5060544;28;20329;-67
2021/03/18 07:03:27;;;;;;;0.47;0.47;;;;;;;2.10;64.18;101633.09;5060388;28;20296;-67
2021/03/18 07:05:54;;;;;;;0.33;0.33;;;;;;;2.13;64.41;101625.09;5078657;28;20582;-67
2021/03/18 07:08:24;;;;;;;0.43;0.43;;;;;;;2.27;64.50;101638.09;5054816;28;20205;-67
2021/03/18 07:10:52;;;;;;;19.80;9.07;;;;;;;2.25;64.00;101634.59;5061210;28;20204;-67
2021/03/18 07:13:22;;;;;;;3.00;2.73;;;;;;;2.29;64.10;101640.72;5059923;28;20309;-68
2021/03/18 07:15:51;;;;;;;0.77;0.70;;;;;;;2.38;64.49;101637.88;5067070;28;20651;-67
2021/03/18 07:18:19;;;;;;;0.47;0.47;;;;;;;2.55;65.08;101638.41;5064742;28;20487;-67
2021/03/18 07:20:56;;;;;;;0.60;0.60;;;;;;;2.67;65.29;101638.16;5063836;28;20201;-67
2021/03/18 07:23:33;;;;;;;1.27;1.03;;;;;;;2.75;64.78;101615.00;5059977;28;20265;-67
2021/03/18 07:26:00;;;;;;;0.30;0.30;;;;;;;2.85;62.66;101620.13;5056450;28;20205;-68
2021/03/18 07:28:29;;;;;;;0.20;0.20;;;;;;;2.93;63.98;101616.38;5064841;28;20228;-68
2021/03/18 07:30:57;;;;;;;0.50;0.50;;;;;;;3.03;64.54;101620.56;5057357;28;20218;-67
2021/03/18 07:33:25;;;;;;;0.50;0.50;;;;;;;3.11;64.09;101617.75;5069952;28;20225;-68
2021/03/18 07:35:53;;;;;;;0.70;0.70;;;;;;;3.19;63.72;101617.56;5071483;28;20833;-68
2021/03/18 07:38:20;;;;;;;0.60;0.43;;;;;;;3.19;62.71;101610.50;5059658;28;20209;-67
2021/03/18 07:40:47;;;;;;;2.00;1.47;;;;;;;3.28;63.77;101610.25;5062543;28;20232;-68
2021/03/18 07:43:15;;;;;;;0.40;0.40;;;;;;;3.31;63.63;101612.84;5067929;28;20225;-67
2021/03/18 07:45:45;;;;;;;5.93;3.80;;;;;;;3.38;63.63;101606.50;5067495;28;21217;-67
2021/03/18 07:48:13;;;;;;;2.23;1.10;;;;;;;3.37;62.46;101604.75;5075173;28;20217;-68
2021/03/18 07:50:41;;;;;;;2.53;0.40;;;;;;;3.42;61.64;101609.94;5080627;28;20227;-67
2021/03/18 07:53:11;;;;;;;0.50;0.50;;;;;;;3.26;63.29;101564.31;5064221;28;20320;-67
2021/03/18 07:55:39;;;;;;;0.50;0.50;;;;;;;3.57;63.38;101596.28;5065909;28;20627;-68
2021/03/18 07:58:06;;;;;;;0.50;0.50;;;;;;;3.62;62.89;101590.84;5059383;28;20591;-67
2021/03/18 08:00:34;;;;;;;1.03;1.00;;;;;;;3.69;62.61;101590.69;5060667;28;20209;-68
2021/03/18 08:03:29;;;;;;;3.67;0.90;;;;;;;3.77;61.82;101595.78;5058695;28;20239;-68
2021/03/18 08:05:58;;;;;;;0.50;0.50;;;;;;;3.82;61.79;101587.69;5065176;28;20212;-67
2021/03/18 08:08:43;;;;;;;0.30;0.30;;;;;;;3.92;61.09;101589.19;5068618;28;20204;-67
2021/03/18 08:11:12;;;;;;;0.37;0.33;;;;;;;3.88;61.34;101580.41;5066811;28;20222;-67
2021/03/18 08:13:41;;;;;;;2.00;0.33;;;;;;;3.93;61.81;101578.50;5061167;28;20205;-67
2021/03/18 08:16:29;;;;;;;0.47;0.43;;;;;;;3.99;60.35;101581.03;5064865;28;20209;-68
2021/03/18 08:18:58;;;;;;;0.40;0.40;;;;;;;3.98;60.68;101584.59;5069103;28;20675;-68
2021/03/18 08:21:36;;;;;;;1.97;0.30;;;;;;;3.98;61.02;101579.28;5067185;28;20197;-67
2021/03/18 08:24:05;;;;;;;4.40;0.43;;;;;;;4.05;61.44;101582.63;5068272;28;20307;-67
2021/03/18 08:26:48;;;;;;;0.33;0.33;;;;;;;4.00;59.99;101573.94;5058286;28;20205;-67
2021/03/18 08:29:19;;;;;;;0.30;0.30;;;;;;;4.04;61.99;101581.78;5060502;28;20310;-67
2021/03/18 08:32:11;;;;;;;0.73;0.40;;;;;;;4.11;62.05;101573.63;5054404;28;20695;-68
2021/03/18 08:34:58;;;;;;;0.77;0.53;;;;;;;4.08;61.42;101571.06;5049141;28;20259;-68
2021/03/18 08:37:40;;;;;;;0.40;0.40;;;;;;;4.15;62.21;101567.31;5060705;28;20217;-67
2021/03/18 08:40:11;;;;;;;1.60;0.83;;;;;;;4.19;61.81;101563.63;5059701;28;20258;-67
2021/03/18 08:42:45;;;;;;;1.20;0.37;;;;;;;4.20;61.93;101560.94;5066488;28;20279;-68
2021/03/18 08:45:41;;;;;;;1.87;0.40;;;;;;;4.30;61.72;101561.56;5056579;28;20194;-67
2021/03/18 08:48:20;;;;;;;0.30;0.30;;;;;;;4.26;59.80;101559.88;5051974;28;20232;-67
2021/03/18 08:50:58;;;;;;;0.20;0.20;;;;;;;4.01;59.33;101523.41;5059060;28;20205;-68
2021/03/18 08:53:43;;;;;;;2.97;0.40;;;;;;;4.37;59.57;101547.19;5062582;28;20221;-68
2021/03/18 08:56:10;;;;;;;0.30;0.30;;;;;;;4.43;60.53;101540.78;5065228;28;20617;-67
2021/03/18 08:58:55;;;;;;;0.40;0.40;;;;;;;4.55;60.81;101535.97;5060073;28;20643;-68
2021/03/18 09:01:24;;;;;;;0.30;0.30;;;;;;;4.40;58.87;101511.66;5059962;28;20197;-68
2021/03/18 09:03:57;;;;;;;0.20;0.20;;;;;;;4.57;58.17;101522.63;5057600;28;20283;-67
2021/03/18 09:06:29;;;;;;;0.20;0.20;;;;;;;4.43;57.88;101482.31;5059322;28;20214;-66
2021/03/18 09:08:58;;;;;;;12.73;3.97;;;;;;;4.96;60.47;101525.84;5066302;28;20296;-66
2021/03/18 09:11:26;;;;;;;127.10;44.27;;;;;;;4.97;59.18;101524.94;5061515;28;20228;-67
2021/03/18 09:13:53;;;;;;;18.20;7.63;;;;;;;5.14;58.93;101524.38;5056860;28;20206;-67
2021/03/18 09:16:22;;;;;;;10.40;4.57;;;;;;;5.25;58.21;101524.91;5065183;28;20559;-67
2021/03/18 09:18:58;;;;;;;1.80;1.20;;;;;;;5.27;57.86;101523.94;5051300;28;20203;-67
2021/03/18 09:21:26;;;;;;;4.77;0.83;;;;;;;5.44;57.88;101519.81;5068611;28;20201;-67
2021/03/18 09:23:55;;;;;;;0.43;0.43;;;;;;;5.44;56.92;101502.03;5067886;28;20200;-67
2021/03/18 09:26:22;;;;;;;3.73;1.00;;;;;;;5.64;58.96;101520.00;5063319;28;20289;-67
2021/03/18 09:28:51;;;;;;;2.43;0.80;;;;;;;5.73;58.61;101511.69;5063648;28;20746;-67
2021/03/18 09:31:22;;;;;;;0.37;0.37;;;;;;;5.72;56.81;101499.28;5061969;28;20197;-67
2021/03/18 09:33:52;;;;;;;0.50;0.50;;;;;;;5.82;56.45;101505.19;5064392;28;20251;-67
2021/03/18 09:36:23;;;;;;;0.47;0.47;;;;;;;5.89;55.42;101496.03;5068595;28;20621;-67
2021/03/18 09:39:04;;;;;;;0.83;0.40;;;;;;;5.94;57.43;101470.09;5062292;28;20198;-67
2021/03/18 09:41:34;;;;;;;0.83;0.57;;;;;;;6.13;57.64;101491.63;5066248;28;20190;-67
2021/03/18 09:44:03;;;;;;;0.60;0.60;;;;;;;6.18;58.93;101497.66;5066845;28;20225;-67
2021/03/18 09:46:31;;;;;;;0.73;0.60;;;;;;;6.14;56.29;101488.03;5067129;28;20197;-67
2021/03/18 09:48:59;;;;;;;22.10;13.53;;;;;;;6.27;57.54;101485.78;5067496;28;20624;-67
2021/03/18 09:51:26;;;;;;;0.90;0.90;;;;;;;6.25;56.43;101480.50;5059653;28;20570;-67
2021/03/18 09:53:59;;;;;;;0.80;0.80;;;;;;;6.48;57.10;101496.50;5058718;28;20202;-67
2021/03/18 09:56:27;;;;;;;0.60;0.57;;;;;;;6.48;56.45;101498.28;5062421;28;20190;-67
2021/03/18 09:58:55;;;;;;;0.37;0.37;;;;;;;6.42;55.08;101496.72;5060174;28;20204;-67
2021/03/18 10:01:24;;;;;;;0.40;0.40;;;;;;;6.50;54.87;101496.44;5065727;28;20292;-67
2021/03/18 10:03:55;;;;;;;0.20;0.20;;;;;;;6.34;56.08;101477.47;5064430;28;20241;-67
2021/03/18 10:06:32;;;;;;;0.40;0.40;;;;;;;6.66;57.55;101499.38;5057812;28;20201;-66
2021/03/18 10:09:19;;;;;;;0.40;0.40;;;;;;;6.48;57.45;101472.50;5056511;28;20198;-67
2021/03/18 10:11:49;;;;;;;0.37;0.30;;;;;;;6.60;53.95;101500.47;5057408;28;22075;-66
2021/03/18 10:14:17;;;;;;;0.33;0.30;;;;;;;6.50;53.85;101481.31;5060266;28;20606;-66
2021/03/18 10:17:04;;;;;;;0.37;0.37;;;;;;;6.70;55.22;101491.16;5070456;28;20975;-67
2021/03/18 10:19:33;;;;;;;0.40;0.40;;;;;;;6.70;54.27;101495.63;5069377;28;20263;-67
2021/03/18 10:22:01;;;;;;;0.40;0.40;;;;;;;6.79;54.34;101493.50;5063017;28;20191;-67
2021/03/18 10:24:29;;;;;;;0.27;0.27;;;;;;;6.87;55.11;101495.84;5069439;28;20698;-67
2021/03/18 10:27:07;;;;;;;1.27;0.50;;;;;;;6.87;52.31;101495.84;5063239;28;20204;-67
2021/03/18 10:29:36;;;;;;;0.33;0.33;;;;;;;6.87;54.32;101490.50;5067279;28;20596;-67
2021/03/18 10:32:11;;;;;;;0.33;0.33;;;;;;;6.89;52.34;101488.63;5065173;28;20297;-67
2021/03/18 10:34:39;;;;;;;0.40;0.40;;;;;;;7.03;55.61;101496.94;5069281;28;20228;-67
2021/03/18 10:37:28;;;;;;;0.40;0.20;;;;;;;6.95;54.68;101493.72;5065245;28;20742;-66
2021/03/18 10:40:18;;;;;;;0.40;0.40;;;;;;;6.86;52.22;101488.78;5066513;28;20563;-66
2021/03/18 10:42:49;;;;;;;0.70;0.30;;;;;;;6.96;54.33;101495.47;5070109;28;20201;-64
2021/03/18 10:45:21;;;;;;;0.30;0.30;;;;;;;7.08;53.64;101494.97;5064000;28;20706;-67
2021/03/18 10:47:48;;;;;;;1.33;0.30;;;;;;;7.03;51.62;101501.41;5058898;28;20603;-67
2021/03/18 10:50:21;;;;;;;0.27;0.27;;;;;;;6.96;51.69;101491.94;5064222;28;20207;-67
2021/03/18 10:52:57;;;;;;;0.20;0.20;;;;;;;6.97;52.17;101491.00;5058624;28;20227;-67
2021/03/18 10:55:26;;;;;;;0.63;0.37;;;;;;;6.95;52.02;101498.19;5064049;28;20200;-67
2021/03/18 10:58:02;;;;;;;0.23;0.23;;;;;;;6.99;52.49;101497.13;5068229;28;20641;-67
2021/03/18 11:00:31;;;;;;;0.30;0.30;;;;;;;7.13;53.98;101493.00;5062358;28;20204;-67
2021/03/18 11:03:05;;;;;;;47.43;24.37;;;;;;;7.07;52.69;101498.59;5053495;28;20250;-67
2021/03/18 11:05:35;;;;;;;1.17;0.60;;;;;;;6.84;51.51;101488.84;5063830;28;20201;-67
2021/03/18 11:08:04;;;;;;;0.53;0.47;;;;;;;6.98;52.92;101487.38;5060193;28;20400;-67
2021/03/18 11:10:40;;;;;;;0.53;0.50;;;;;;;6.84;51.69;101495.97;5063686;28;20299;-67
2021/03/18 11:13:12;;;;;;;0.40;0.40;;;;;;;6.77;51.55;101494.50;5056134;28;20249;-67
2021/03/18 11:16:04;;;;;;;0.33;0.33;;;;;;;6.96;52.70;101487.47;5068097;28;20268;-67
2021/03/18 11:18:35;;;;;;;0.30;0.30;;;;;;;7.13;52.29;101490.31;5061923;28;20199;-67
2021/03/18 11:21:06;;;;;;;0.40;0.40;;;;;;;7.15;51.49;101485.78;5071476;28;20618;-67
2021/03/18 11:23:36;;;;;;;0.40;0.40;;;;;;;7.27;51.82;101487.06;5054099;28;20712;-67
2021/03/18 11:26:06;;;;;;;8.40;1.13;;;;;;;7.62;52.62;101480.19;5071361;28;20230;-67
2021/03/18 11:28:34;;;;;;;0.40;0.40;;;;;;;7.33;51.49;101491.25;5067591;28;20234;-67
2021/03/18 11:31:12;;;;;;;0.50;0.50;;;;;;;7.34;51.75;101484.97;5060900;28;20195;-67
2021/03/18 11:33:40;;;;;;;0.33;0.33;;;;;;;7.44;51.54;101492.56;5056034;28;20721;-67
2021/03/18 11:36:09;;;;;;;0.97;0.97;;;;;;;7.52;50.90;101494.91;5061883;28;20208;-67
2021/03/18 11:38:37;;;;;;;0.67;0.40;;;;;;;7.16;50.79;101476.81;5082083;28;20354;-67
2021/03/18 11:41:05;;;;;;;0.83;0.30;;;;;;;7.36;50.91;101481.34;5068805;28;20227;-67
2021/03/18 11:43:33;;;;;;;0.43;0.43;;;;;;;7.63;50.15;101487.28;5068120;28;20206;-67
2021/03/18 11:46:01;;;;;;;0.53;0.53;;;;;;;7.82;50.62;101486.47;5065624;28;20207;-67
2021/03/18 11:48:29;;;;;;;0.40;0.33;;;;;;;7.71;50.40;101479.81;5063073;28;20205;-67